Time;durP1;ratioP1;P1;durP2;ratioP2;P2;SDS_P1;SDS_P2;PMS_P1;PMS_P2;Temp;Humidity;BMP_temperature;BMP_pressure;BME280_temperature;BME280_humidity;BME280_pressure;Samples;Min_cycle;Max_cycle;Signal;HPM_P1;HPM_P2
2021/12/27 00:01:07;;;;;;;37.08;16.83;;;;;;;3.04;100.00;99943.50;5048942;28;20132;-75
2021/12/27 00:03:34;;;;;;;32.63;15.30;;;;;;;3.05;100.00;99942.31;5046811;28;20072;-74
2021/12/27 00:06:01;;;;;;;31.20;15.73;;;;;;;3.06;100.00;99944.69;5042935;28;20056;-75
2021/12/27 00:08:27;;;;;;;33.30;15.43;;;;;;;3.07;100.00;99942.75;5039199;28;20044;-75
2021/12/27 00:10:54;;;;;;;34.13;16.27;;;;;;;3.06;100.00;99933.75;5036456;28;20050;-74
2021/12/27 00:13:21;;;;;;;34.67;15.93;;;;;;;3.08;100.00;99941.59;5049610;28;20076;-75
2021/12/27 00:15:47;;;;;;;33.58;15.82;;;;;;;3.09;100.00;99933.03;5046575;28;20049;-77
2021/12/27 00:18:14;;;;;;;35.92;15.60;;;;;;;3.05;100.00;99926.72;5032909;28;20049;-74
2021/12/27 00:20:40;;;;;;;32.38;14.50;;;;;;;3.04;100.00;99930.63;5047869;28;20124;-75
2021/12/27 00:23:07;;;;;;;35.70;15.35;;;;;;;3.08;100.00;99922.47;5028380;28;20081;-75
2021/12/27 00:25:33;;;;;;;33.15;15.52;;;;;;;3.08;100.00;99926.00;5032622;28;20041;-75
2021/12/27 00:28:00;;;;;;;35.75;16.02;;;;;;;3.04;100.00;99916.97;5033896;28;20055;-73
2021/12/27 00:30:26;;;;;;;33.50;16.10;;;;;;;3.04;100.00;99924.34;5033014;28;20072;-74
2021/12/27 00:32:53;;;;;;;38.35;16.95;;;;;;;3.04;100.00;99916.97;5034371;28;20076;-74
2021/12/27 00:35:22;;;;;;;33.92;16.00;;;;;;;2.99;100.00;99919.97;5034180;28;20132;-77
2021/12/27 00:37:49;;;;;;;35.28;15.98;;;;;;;3.00;100.00;99912.59;5038042;28;20080;-75
2021/12/27 00:40:16;;;;;;;38.70;16.90;;;;;;;2.97;100.00;99913.31;5035533;28;20830;-76
2021/12/27 00:42:42;;;;;;;35.22;15.98;;;;;;;2.96;100.00;99912.50;5031156;28;20184;-74
2021/12/27 00:45:10;;;;;;;36.03;16.35;;;;;;;2.96;100.00;99914.47;5031740;28;20049;-74
2021/12/27 00:47:37;;;;;;;35.78;16.48;;;;;;;2.96;100.00;99915.25;5035524;28;20103;-75
2021/12/27 00:50:05;;;;;;;39.40;17.05;;;;;;;2.95;100.00;99915.59;5036829;28;20052;-74
2021/12/27 00:52:35;;;;;;;31.13;14.15;;;;;;;2.95;100.00;99910.94;5035905;28;20041;-74
2021/12/27 00:55:08;;;;;;;29.58;14.27;;;;;;;2.96;100.00;99892.63;5042314;28;20134;-75
2021/12/27 00:57:35;;;;;;;39.00;15.38;;;;;;;2.97;100.00;99899.66;5035573;28;20099;-74
2021/12/27 01:00:09;;;;;;;31.70;14.35;;;;;;;2.95;100.00;99889.09;5036216;28;20051;-74
2021/12/27 01:02:35;;;;;;;35.67;16.63;;;;;;;2.99;100.00;99894.59;5038808;28;20120;-74
2021/12/27 01:05:03;;;;;;;35.85;13.77;;;;;;;3.03;100.00;99890.00;5035538;28;20088;-74
2021/12/27 01:07:31;;;;;;;32.65;14.82;;;;;;;3.03;100.00;99890.00;5037038;28;20131;-74
2021/12/27 01:10:32;;;;;;;33.42;14.77;;;;;;;3.01;100.00;99882.16;5040408;28;20439;-75
2021/12/27 01:13:16;;;;;;;33.28;15.13;;;;;;;3.04;100.00;99889.63;5028150;28;20048;-74
2021/12/27 01:18:50;;;;;;;36.95;16.38;;;;;;;3.05;100.00;99895.88;5037281;28;20059;-75
2021/12/27 01:21:20;;;;;;;34.65;15.82;;;;;;;3.05;100.00;99898.59;5023114;28;20045;-75
2021/12/27 01:23:47;;;;;;;35.90;15.93;;;;;;;3.10;100.00;99910.00;5025916;28;20926;-76
2021/12/27 01:26:14;;;;;;;38.17;15.82;;;;;;;3.09;100.00;99910.38;5021516;28;20045;-76
2021/12/27 01:28:41;;;;;;;28.65;15.13;;;;;;;3.12;100.00;99910.44;5038719;28;20168;-74
2021/12/27 01:31:08;;;;;;;33.65;15.18;;;;;;;3.13;100.00;99905.78;5026754;28;20049;-74
2021/12/27 01:33:37;;;;;;;34.55;15.20;;;;;;;3.14;100.00;99908.09;5036802;28;20147;-75
2021/12/27 01:36:04;;;;;;;33.72;14.50;;;;;;;3.14;100.00;99899.16;5030756;28;20053;-74
2021/12/27 01:38:35;;;;;;;31.75;14.05;;;;;;;3.17;100.00;99903.88;5025168;28;20045;-74
2021/12/27 01:41:04;;;;;;;32.78;14.55;;;;;;;3.18;100.00;99908.19;5023911;28;20408;-74
2021/12/27 01:43:33;;;;;;;31.80;14.05;;;;;;;3.17;100.00;99906.59;5037683;28;20175;-74
2021/12/27 01:46:03;;;;;;;29.85;14.40;;;;;;;3.20;100.00;99905.88;5026793;28;20136;-74
2021/12/27 01:48:36;;;;;;;32.85;14.50;;;;;;;3.19;100.00;99901.53;5029648;28;20834;-74
2021/12/27 01:51:06;;;;;;;36.88;14.30;;;;;;;3.18;100.00;99892.56;5034253;28;20060;-73
2021/12/27 01:53:34;;;;;;;31.15;13.48;;;;;;;3.21;100.00;99891.03;5032573;28;20059;-74
2021/12/27 01:56:01;;;;;;;30.58;14.13;;;;;;;3.21;100.00;99882.84;5046030;28;20094;-73
2021/12/27 01:58:28;;;;;;;31.83;14.88;;;;;;;3.21;100.00;99880.91;5038183;28;20132;-74
2021/12/27 02:00:58;;;;;;;34.58;15.32;;;;;;;3.18;100.00;99884.38;5034076;28;20132;-74
2021/12/27 02:03:27;;;;;;;34.33;13.55;;;;;;;3.22;100.00;99882.47;5048034;28;20048;-74
2021/12/27 02:05:55;;;;;;;33.70;14.95;;;;;;;3.23;100.00;99889.50;5041134;28;20049;-75
2021/12/27 02:08:22;;;;;;;35.28;15.57;;;;;;;3.22;100.00;99884.41;5032082;28;20049;-75
2021/12/27 02:10:49;;;;;;;32.53;15.60;;;;;;;3.21;100.00;99880.13;5036677;28;20136;-74
2021/12/27 02:13:17;;;;;;;32.78;15.45;;;;;;;3.23;100.00;99884.06;5032288;28;20059;-74
2021/12/27 02:15:43;;;;;;;34.40;14.82;;;;;;;3.23;100.00;99877.78;5036185;28;20061;-75
2021/12/27 02:18:10;;;;;;;28.35;13.10;;;;;;;3.26;100.00;99879.78;5031727;28;20412;-74
2021/12/27 02:20:39;;;;;;;35.33;14.77;;;;;;;3.27;100.00;99879.41;5039303;28;20061;-74
2021/12/27 02:23:15;;;;;;;31.85;13.73;;;;;;;3.26;100.00;99875.13;5035063;28;20053;-75
2021/12/27 02:25:47;;;;;;;31.77;14.55;;;;;;;3.29;100.00;99877.13;5037429;28;20817;-74
2021/12/27 02:28:16;;;;;;;32.17;14.93;;;;;;;3.32;100.00;99876.38;5029175;28;20076;-74
2021/12/27 02:30:45;;;;;;;37.47;16.02;;;;;;;3.34;100.00;99874.03;5032547;28;20088;-76
2021/12/27 02:33:12;;;;;;;35.63;14.88;;;;;;;3.36;100.00;99871.75;5036762;28;20049;-74
2021/12/27 02:35:46;;;;;;;33.05;14.27;;;;;;;3.37;100.00;99862.38;5031503;28;20052;-74
2021/12/27 02:38:16;;;;;;;30.58;13.98;;;;;;;3.42;100.00;99862.06;5036196;28;20049;-74
2021/12/27 02:40:43;;;;;;;35.15;14.88;;;;;;;3.43;100.00;99865.56;5031171;28;20077;-75
2021/12/27 02:43:22;;;;;;;32.50;14.45;;;;;;;3.40;100.00;99856.16;5031615;28;20060;-75
2021/12/27 02:45:52;;;;;;;33.30;13.98;;;;;;;3.44;100.00;99854.28;5026419;28;20525;-75
2021/12/27 02:48:22;;;;;;;31.83;13.65;;;;;;;3.46;100.00;99851.97;5041773;28;20080;-74
2021/12/27 02:50:49;;;;;;;32.80;14.85;;;;;;;3.47;100.00;99850.78;5034970;28;20517;-74
2021/12/27 02:53:17;;;;;;;30.75;13.18;;;;;;;3.46;100.00;99845.69;5031880;28;20068;-77
2021/12/27 02:55:44;;;;;;;29.92;14.38;;;;;;;3.52;100.00;99863.38;5042870;28;20061;-74
2021/12/27 02:58:10;;;;;;;33.42;14.00;;;;;;;3.53;100.00;99860.25;5032769;28;20069;-75
2021/12/27 03:01:04;;;;;;;35.10;14.73;;;;;;;3.55;100.00;99852.50;5035237;28;20650;-74
2021/12/27 03:03:31;;;;;;;26.83;12.68;;;;;;;3.57;100.00;99852.09;5029504;28;20049;-74
2021/12/27 03:05:58;;;;;;;30.20;13.63;;;;;;;3.58;100.00;99846.25;5029233;28;20053;-74
2021/12/27 03:08:26;;;;;;;30.45;13.95;;;;;;;3.60;100.00;99843.94;5029738;28;20107;-73
2021/12/27 03:10:56;;;;;;;30.00;14.38;;;;;;;3.60;100.00;99838.47;5029504;28;20045;-74
2021/12/27 03:13:31;;;;;;;31.67;13.95;;;;;;;3.62;100.00;99849.03;5032087;28;20510;-74
2021/12/27 03:16:05;;;;;;;29.77;14.07;;;;;;;3.59;100.00;99845.09;5045341;28;20045;-75
2021/12/27 03:18:34;;;;;;;31.08;14.70;;;;;;;3.60;100.00;99833.00;5030671;28;20057;-77
2021/12/27 03:21:02;;;;;;;29.85;15.48;;;;;;;3.62;100.00;99829.91;5033013;28;20426;-73
2021/12/27 03:23:29;;;;;;;35.28;15.15;;;;;;;3.62;100.00;99830.69;5042765;28;20060;-74
2021/12/27 03:25:55;;;;;;;27.88;13.30;;;;;;;3.62;100.00;99827.16;5041990;28;20049;-74
2021/12/27 03:28:23;;;;;;;31.90;14.43;;;;;;;3.68;100.00;99837.38;5031564;28;20080;-75
2021/12/27 03:30:51;;;;;;;29.17;13.68;;;;;;;3.70;100.00;99834.28;5041984;28;20053;-74
2021/12/27 03:33:22;;;;;;;29.17;13.20;;;;;;;3.68;100.00;99831.91;5029757;28;20046;-73
2021/12/27 03:36:00;;;;;;;27.60;13.43;;;;;;;3.70;100.00;99835.06;5044824;28;20049;-74
2021/12/27 03:38:33;;;;;;;28.58;13.60;;;;;;;3.73;100.00;99828.88;5030664;28;20498;-73
2021/12/27 03:41:01;;;;;;;31.23;15.18;;;;;;;3.74;100.00;99827.69;5031161;28;20095;-73
2021/12/27 03:43:27;;;;;;;31.58;13.65;;;;;;;3.72;100.00;99823.75;5030353;28;20584;-75
2021/12/27 03:45:54;;;;;;;32.60;15.27;;;;;;;3.75;100.00;99832.00;5041513;28;20842;-74
2021/12/27 03:48:20;;;;;;;26.77;13.32;;;;;;;3.73;100.00;99820.66;5035211;28;20140;-73
2021/12/27 03:50:47;;;;;;;36.05;15.30;;;;;;;3.77;100.00;99823.41;5034098;28;20057;-74
2021/12/27 03:53:14;;;;;;;30.02;13.80;;;;;;;3.75;100.00;99821.06;5040396;28;20527;-73
2021/12/27 03:55:40;;;;;;;29.10;13.13;;;;;;;3.76;100.00;99822.66;5039807;28;20053;-73
2021/12/27 03:58:22;;;;;;;29.63;14.05;;;;;;;3.79;100.00;99835.59;5037080;28;20055;-73
2021/12/27 04:03:22;;;;;;;31.70;13.93;;;;;;;3.82;100.00;99823.09;5037535;28;20069;-74
2021/12/27 04:05:48;;;;;;;28.63;13.55;;;;;;;3.83;100.00;99822.72;5031179;28;20143;-73
2021/12/27 04:08:17;;;;;;;30.67;13.82;;;;;;;3.83;100.00;99816.47;5030986;28;20160;-73
2021/12/27 04:10:45;;;;;;;30.30;13.18;;;;;;;3.84;100.00;99818.81;5030070;28;20054;-75
2021/12/27 04:13:12;;;;;;;26.77;12.90;;;;;;;3.84;100.00;99810.63;5043536;28;20413;-74
2021/12/27 04:15:40;;;;;;;28.13;13.05;;;;;;;3.85;100.00;99812.19;5045325;28;20055;-73
2021/12/27 04:18:09;;;;;;;27.77;13.88;;;;;;;3.84;100.00;99810.63;5029973;28;20050;-73
2021/12/27 04:20:36;;;;;;;32.28;15.73;;;;;;;3.83;100.00;99809.06;5029911;28;20748;-73
2021/12/27 04:23:03;;;;;;;33.25;15.25;;;;;;;3.81;100.00;99805.13;5029974;28;20129;-74
2021/12/27 04:25:29;;;;;;;31.50;13.88;;;;;;;3.85;100.00;99800.47;5040494;28;20068;-77
2021/12/27 04:27:56;;;;;;;31.65;14.77;;;;;;;3.87;100.00;99803.59;5030349;28;20076;-74
2021/12/27 04:30:23;;;;;;;31.83;15.27;;;;;;;3.89;100.00;99804.81;5039808;28;20505;-74
2021/12/27 04:32:50;;;;;;;33.50;14.30;;;;;;;3.92;100.00;99806.78;5040626;28;20050;-74
2021/12/27 04:35:18;;;;;;;33.03;14.88;;;;;;;3.93;100.00;99802.91;5039269;28;20132;-73
2021/12/27 04:37:46;;;;;;;31.02;13.88;;;;;;;3.95;100.00;99805.28;5043717;28;20514;-76
2021/12/27 04:40:14;;;;;;;29.80;13.68;;;;;;;3.94;100.00;99798.19;5036525;28;20510;-74
2021/12/27 04:42:49;;;;;;;27.40;12.25;;;;;;;3.94;100.00;99799.00;5038882;28;20132;-73
2021/12/27 04:45:17;;;;;;;28.55;13.63;;;;;;;3.97;100.00;99790.03;5039307;28;20497;-73
2021/12/27 04:47:44;;;;;;;31.23;12.45;;;;;;;3.98;100.00;99794.34;5029213;28;20529;-73
2021/12/27 04:50:11;;;;;;;29.60;14.75;;;;;;;3.99;100.00;99792.41;5031535;28;20049;-75
2021/12/27 04:52:39;;;;;;;31.35;14.90;;;;;;;3.97;100.00;99787.31;5041611;28;20160;-74
2021/12/27 04:55:06;;;;;;;31.33;13.82;;;;;;;3.97;100.00;99776.34;5032338;28;20049;-74
2021/12/27 04:57:33;;;;;;;32.42;14.35;;;;;;;3.97;100.00;99781.84;5029477;28;20045;-73
2021/12/27 05:00:00;;;;;;;28.17;12.80;;;;;;;3.98;100.00;99783.41;5040335;28;20056;-73
2021/12/27 05:02:26;;;;;;;28.20;12.75;;;;;;;4.00;100.00;99781.09;5037340;28;20041;-74
2021/12/27 05:04:54;;;;;;;31.58;14.65;;;;;;;4.01;100.00;99774.44;5032347;28;20128;-73
2021/12/27 05:07:20;;;;;;;30.63;14.75;;;;;;;4.00;100.00;99775.63;5042334;28;20118;-73
2021/12/27 05:09:47;;;;;;;31.10;14.27;;;;;;;4.02;100.00;99773.28;5034890;28;20053;-73
2021/12/27 05:12:13;;;;;;;35.75;14.50;;;;;;;4.02;100.00;99767.78;5036208;28;20053;-73
2021/12/27 05:14:40;;;;;;;32.70;14.93;;;;;;;4.05;100.00;99763.53;5039669;28;20140;-73
2021/12/27 05:17:06;;;;;;;28.67;12.93;;;;;;;4.05;100.00;99760.81;5042606;28;20052;-76
2021/12/27 05:19:33;;;;;;;30.00;14.32;;;;;;;4.06;100.00;99762.38;5041192;28;20136;-73
2021/12/27 05:21:59;;;;;;;28.73;13.52;;;;;;;4.06;100.00;99757.69;5041350;28;20063;-74
2021/12/27 05:24:28;;;;;;;30.40;14.50;;;;;;;4.09;100.00;99756.16;5030801;28;20053;-74
2021/12/27 05:26:55;;;;;;;32.80;14.57;;;;;;;4.08;100.00;99758.09;5029370;28;20144;-73
2021/12/27 05:29:22;;;;;;;31.70;14.43;;;;;;;4.08;100.00;99762.78;5028415;28;20700;-74
2021/12/27 05:31:49;;;;;;;30.55;14.48;;;;;;;4.10;100.00;99768.66;5027493;28;20053;-73
2021/12/27 05:34:16;;;;;;;32.42;15.75;;;;;;;4.09;100.00;99762.38;5028590;28;20059;-73
2021/12/27 05:36:44;;;;;;;27.63;13.02;;;;;;;4.08;100.00;99760.06;5035107;28;20053;-74
2021/12/27 05:39:13;;;;;;;32.08;14.55;;;;;;;4.08;100.00;99769.03;5034097;28;20057;-74
2021/12/27 05:41:39;;;;;;;30.05;14.48;;;;;;;4.08;100.00;99766.28;5037334;28;20057;-76
2021/12/27 05:44:06;;;;;;;27.85;13.75;;;;;;;4.09;100.00;99767.88;5030846;28;20049;-74
2021/12/27 05:46:32;;;;;;;31.17;13.80;;;;;;;4.11;100.00;99759.28;5034209;28;20045;-74
2021/12/27 05:48:59;;;;;;;28.55;12.95;;;;;;;4.16;100.00;99765.22;5041492;28;20053;-74
2021/12/27 05:51:26;;;;;;;23.75;12.18;;;;;;;4.19;100.00;99758.19;5035991;28;20137;-74
2021/12/27 05:53:52;;;;;;;30.98;14.63;;;;;;;4.19;100.00;99745.28;5027924;28;20437;-73
2021/12/27 05:56:19;;;;;;;28.85;12.88;;;;;;;4.20;100.00;99737.84;5034155;28;20045;-74
2021/12/27 05:58:46;;;;;;;24.50;12.55;;;;;;;4.20;100.00;99735.13;5038335;28;20432;-74
2021/12/27 06:01:13;;;;;;;27.30;13.38;;;;;;;4.18;100.00;99731.97;5041989;28;20132;-76
2021/12/27 06:03:40;;;;;;;29.00;13.43;;;;;;;4.15;100.00;99738.22;5028653;28;20057;-75
2021/12/27 06:06:07;;;;;;;31.85;13.82;;;;;;;4.10;100.00;99736.59;5031370;28;20103;-74
2021/12/27 06:08:34;;;;;;;30.58;13.45;;;;;;;4.10;100.00;99733.88;5029599;28;20417;-74
2021/12/27 06:11:00;;;;;;;28.92;13.23;;;;;;;4.10;100.00;99730.34;5032560;28;20053;-73
2021/12/27 06:13:27;;;;;;;28.98;13.70;;;;;;;4.12;100.00;99737.00;5031103;28;20053;-74
2021/12/27 06:15:53;;;;;;;26.83;13.30;;;;;;;4.14;100.00;99733.88;5044548;28;20523;-74
2021/12/27 06:18:20;;;;;;;28.30;13.93;;;;;;;4.13;100.00;99738.59;5028446;28;20103;-74
2021/12/27 06:20:47;;;;;;;30.63;13.77;;;;;;;4.15;100.00;99730.78;5027388;28;20434;-76
2021/12/27 06:23:14;;;;;;;29.52;13.85;;;;;;;4.15;100.00;99730.78;5030690;28;20046;-74
2021/12/27 06:25:43;;;;;;;26.55;12.70;;;;;;;4.15;100.00;99732.75;5034089;28;20115;-74
2021/12/27 06:28:10;;;;;;;24.20;11.90;;;;;;;4.14;100.00;99728.41;5029671;28;20053;-74
2021/12/27 06:30:37;;;;;;;31.63;12.52;;;;;;;4.13;100.00;99727.66;5030974;28;20336;-74
2021/12/27 06:33:06;;;;;;;27.83;13.27;;;;;;;4.11;100.00;99720.94;5034757;28;20784;-74
2021/12/27 06:35:33;;;;;;;27.75;11.88;;;;;;;4.12;100.00;99723.31;5035861;28;20044;-75
2021/12/27 06:38:00;;;;;;;26.42;12.52;;;;;;;4.09;100.00;99724.06;5027380;28;20045;-73
2021/12/27 06:40:26;;;;;;;26.85;12.63;;;;;;;4.07;100.00;99715.47;5029289;28;20048;-74
2021/12/27 06:42:53;;;;;;;27.58;12.50;;;;;;;4.07;100.00;99720.13;5034905;28;20135;-77
2021/12/27 06:45:19;;;;;;;25.92;12.77;;;;;;;4.05;100.00;99723.25;5030442;28;20053;-74
2021/12/27 06:47:46;;;;;;;29.75;13.02;;;;;;;4.03;100.00;99720.13;5032304;28;20489;-74
2021/12/27 06:50:13;;;;;;;27.83;13.35;;;;;;;4.04;100.00;99732.63;5039811;28;20052;-73
2021/12/27 06:52:41;;;;;;;31.48;14.02;;;;;;;4.05;100.00;99722.47;5033900;28;20102;-74
2021/12/27 06:55:09;;;;;;;30.13;14.50;;;;;;;4.06;100.00;99724.84;5033863;28;20055;-77
2021/12/27 06:57:36;;;;;;;27.98;13.93;;;;;;;4.08;100.00;99738.16;5032384;28;20115;-74
2021/12/27 07:00:06;;;;;;;30.80;13.88;;;;;;;4.09;100.00;99728.78;5037579;28;20057;-75
2021/12/27 07:02:33;;;;;;;31.95;15.68;;;;;;;4.12;100.00;99734.25;5030497;28;20077;-74
2021/12/27 07:05:00;;;;;;;29.13;13.77;;;;;;;4.10;100.00;99725.66;5033183;28;20061;-74
2021/12/27 07:07:27;;;;;;;31.00;14.68;;;;;;;4.12;100.00;99731.53;5040103;28;20057;-74
2021/12/27 07:09:53;;;;;;;30.17;14.38;;;;;;;4.10;100.00;99719.38;5047291;28;20818;-74
2021/12/27 07:12:20;;;;;;;27.70;14.35;;;;;;;4.15;100.00;99730.00;5037893;28;20209;-74
2021/12/27 07:14:48;;;;;;;29.10;13.80;;;;;;;4.14;100.00;99731.16;5038877;28;20057;-75
2021/12/27 07:17:15;;;;;;;31.13;16.05;;;;;;;4.15;100.00;99732.75;5040665;28;20084;-74
2021/12/27 07:19:42;;;;;;;27.52;13.15;;;;;;;4.14;100.00;99731.94;5038518;28;20516;-73
2021/12/27 07:22:09;;;;;;;30.20;13.73;;;;;;;4.14;100.00;99736.63;5029508;28;20077;-73
2021/12/27 07:24:35;;;;;;;30.52;14.43;;;;;;;4.16;100.00;99735.09;5038758;28;20125;-73
2021/12/27 07:27:02;;;;;;;27.92;12.32;;;;;;;4.20;100.00;99741.41;5035196;28;20060;-73
2021/12/27 07:29:29;;;;;;;25.35;11.45;;;;;;;4.21;100.00;99737.47;5030868;28;20745;-74
2021/12/27 07:31:55;;;;;;;25.65;11.40;;;;;;;4.24;100.00;99736.72;5031830;28;20057;-74
2021/12/27 07:34:24;;;;;;;29.70;12.90;;;;;;;4.25;100.00;99727.34;5053451;28;20101;-73
2021/12/27 07:36:52;;;;;;;27.00;12.65;;;;;;;4.25;100.00;99737.53;5046003;28;20130;-74
2021/12/27 07:39:21;;;;;;;26.00;11.68;;;;;;;4.25;100.00;99724.59;5029758;28;20055;-73
2021/12/27 07:41:47;;;;;;;26.52;12.23;;;;;;;4.25;100.00;99735.56;5036361;28;20441;-75
2021/12/27 07:44:14;;;;;;;26.63;11.90;;;;;;;4.22;100.00;99728.09;5040950;28;20116;-74
2021/12/27 07:46:42;;;;;;;25.63;12.30;;;;;;;4.25;100.00;99732.81;5039088;28;20568;-73
2021/12/27 07:49:09;;;;;;;27.83;12.40;;;;;;;4.25;100.00;99727.34;5037624;28;20056;-74
2021/12/27 07:51:36;;;;;;;28.35;13.13;;;;;;;4.25;100.00;99719.13;5044763;28;20541;-73
2021/12/27 07:54:03;;;;;;;26.20;12.55;;;;;;;4.28;100.00;99726.59;5035404;28;20045;-73
2021/12/27 07:56:29;;;;;;;27.77;12.25;;;;;;;4.29;100.00;99730.13;5039147;28;20136;-73
2021/12/27 07:58:56;;;;;;;24.23;12.13;;;;;;;4.26;100.00;99723.44;5036411;28;20055;-73
2021/12/27 08:01:23;;;;;;;26.38;14.32;;;;;;;4.28;100.00;99721.13;5031729;28;20136;-72
2021/12/27 08:03:49;;;;;;;25.80;12.73;;;;;;;4.32;100.00;99732.09;5035178;28;20063;-73
2021/12/27 08:06:16;;;;;;;29.48;12.85;;;;;;;4.32;100.00;99724.66;5034345;28;20057;-69
2021/12/27 08:08:42;;;;;;;29.77;13.13;;;;;;;4.33;100.00;99720.78;5032917;28;20049;-74
2021/12/27 08:11:09;;;;;;;26.10;11.75;;;;;;;4.39;100.00;99727.44;5042835;28;20176;-73
2021/12/27 08:13:37;;;;;;;29.23;12.88;;;;;;;4.35;100.00;99721.16;5038691;28;20553;-75
2021/12/27 08:16:04;;;;;;;25.77;11.90;;;;;;;4.41;100.00;99722.41;5044993;28;20045;-73
2021/12/27 08:18:31;;;;;;;29.13;11.80;;;;;;;4.42;100.00;99725.94;5030833;28;20118;-75
2021/12/27 08:20:59;;;;;;;23.17;11.00;;;;;;;4.42;100.00;99717.72;5039992;28;20139;-75
2021/12/27 08:23:25;;;;;;;22.13;10.55;;;;;;;4.42;100.00;99721.22;5038140;28;20053;-75
2021/12/27 08:25:52;;;;;;;28.05;13.60;;;;;;;4.44;100.00;99721.63;5039047;28;20076;-75
2021/12/27 08:28:19;;;;;;;22.00;11.27;;;;;;;4.48;100.00;99718.91;5034045;28;20136;-73
2021/12/27 08:30:46;;;;;;;23.77;10.70;;;;;;;4.47;100.00;99709.94;5030382;28;20197;-75
2021/12/27 08:33:13;;;;;;;22.75;10.02;;;;;;;4.51;100.00;99708.00;5038699;28;20045;-75
2021/12/27 08:35:40;;;;;;;22.85;10.32;;;;;;;4.52;100.00;99703.31;5029245;28;20600;-75
2021/12/27 08:38:07;;;;;;;20.98;9.88;;;;;;;4.57;100.00;99705.69;5040001;28;20057;-75
2021/12/27 08:40:33;;;;;;;25.35;11.30;;;;;;;4.58;100.00;99708.03;5030627;28;20135;-75
2021/12/27 08:43:00;;;;;;;24.65;11.20;;;;;;;4.62;100.00;99711.59;5027948;28;20556;-74
2021/12/27 08:45:27;;;;;;;24.48;11.35;;;;;;;4.63;100.00;99704.94;5029669;28;20087;-74
2021/12/27 08:47:56;;;;;;;26.55;11.68;;;;;;;4.68;100.00;99703.78;5033638;28;20569;-73
2021/12/27 08:50:22;;;;;;;21.60;9.98;;;;;;;4.74;100.00;99692.09;5034683;28;20045;-76
2021/12/27 08:52:50;;;;;;;24.55;10.38;;;;;;;4.78;100.00;99690.16;5030259;28;20782;-74
2021/12/27 08:55:17;;;;;;;24.27;11.93;;;;;;;4.85;100.00;99692.94;5028769;28;20144;-74
2021/12/27 08:57:45;;;;;;;25.20;11.73;;;;;;;4.92;100.00;99695.72;5030236;28;20088;-75
2021/12/27 09:00:14;;;;;;;48.20;26.60;;;;;;;5.00;100.00;99700.06;5032103;28;20511;-74
2021/12/27 09:02:41;;;;;;;44.60;23.38;;;;;;;5.09;100.00;99689.53;5028736;28;20080;-73
2021/12/27 09:05:08;;;;;;;40.97;22.40;;;;;;;5.19;100.00;99696.22;5032505;28;20084;-76
2021/12/27 09:07:34;;;;;;;38.90;21.13;;;;;;;5.27;100.00;99698.59;5029582;28;20123;-75
2021/12/27 09:10:02;;;;;;;36.67;20.13;;;;;;;5.39;100.00;99692.78;5033920;28;20802;-76
2021/12/27 09:12:29;;;;;;;35.97;18.15;;;;;;;5.55;100.00;99695.19;5025590;28;20561;-75
2021/12/27 09:14:55;;;;;;;32.85;15.90;;;;;;;5.64;100.00;99686.56;5028017;28;20059;-75
2021/12/27 09:17:22;;;;;;;30.75;15.90;;;;;;;5.83;100.00;99699.97;5029857;28;20045;-74
2021/12/27 09:19:49;;;;;;;28.92;14.60;;;;;;;5.94;100.00;99698.03;5028594;28;20049;-76
2021/12/27 09:22:17;;;;;;;31.13;14.38;;;;;;;6.09;100.00;99692.16;5029192;28;20056;-75
2021/12/27 09:24:43;;;;;;;26.45;13.52;;;;;;;6.22;100.00;99700.78;5031181;28;20076;-77
2021/12/27 09:27:10;;;;;;;28.40;13.10;;;;;;;6.34;100.00;99706.66;5029021;28;20106;-76
2021/12/27 09:29:37;;;;;;;25.52;11.38;;;;;;;6.46;100.00;99708.25;5036510;28;20049;-75
2021/12/27 09:32:04;;;;;;;24.20;11.98;;;;;;;6.59;100.00;99709.41;5043597;28;20519;-75
2021/12/27 09:34:31;;;;;;;24.33;11.85;;;;;;;6.74;100.00;99702.69;5042418;28;20041;-76
2021/12/27 09:36:58;;;;;;;21.38;9.93;;;;;;;6.91;100.00;99699.13;5041106;28;20049;-77
2021/12/27 09:39:24;;;;;;;21.23;9.15;;;;;;;7.07;100.00;99702.22;5041216;28;20086;-77
2021/12/27 09:41:51;;;;;;;20.05;8.80;;;;;;;7.19;100.00;99693.56;5031459;28;20746;-75
2021/12/27 09:44:17;;;;;;;20.02;9.20;;;;;;;7.26;100.00;99683.28;5034172;28;20071;-76
2021/12/27 09:46:49;;;;;;;18.30;9.00;;;;;;;7.37;100.00;99686.00;5038118;28;20053;-76
2021/12/27 09:49:19;;;;;;;18.13;8.80;;;;;;;7.42;100.00;99677.31;5030774;28;20049;-76
2021/12/27 09:51:46;;;;;;;21.75;9.77;;;;;;;7.50;100.00;99673.34;5032619;28;20083;-76
2021/12/27 09:54:17;;;;;;;16.80;7.75;;;;;;;7.54;100.00;99674.13;5037112;28;20050;-75
2021/12/27 09:56:45;;;;;;;17.52;7.47;;;;;;;7.63;100.00;99682.72;5030305;28;20059;-75
2021/12/27 09:59:11;;;;;;;19.95;7.65;;;;;;;7.69;100.00;99670.88;5032725;28;20466;-75
2021/12/27 10:01:39;;;;;;;18.95;7.78;;;;;;;7.80;100.00;99666.06;5033533;28;20049;-76
2021/12/27 10:04:05;;;;;;;16.77;7.55;;;;;;;7.91;100.00;99657.75;5028991;28;20053;-75
2021/12/27 10:06:32;;;;;;;18.63;7.45;;;;;;;8.02;100.00;99664.75;5035248;28;20127;-76
2021/12/27 10:09:04;;;;;;;16.50;7.45;;;;;;;8.13;100.00;99669.41;5036863;28;20053;-76
2021/12/27 10:11:39;;;;;;;16.02;7.30;;;;;;;8.26;100.00;99656.72;5035053;28;20050;-75
2021/12/27 10:14:15;;;;;;;16.77;6.22;;;;;;;8.40;100.00;99659.34;5039896;28;20396;-75
2021/12/27 10:16:49;;;;;;;15.85;6.43;;;;;;;8.61;100.00;99653.63;5039499;28;20053;-75
2021/12/27 10:19:18;;;;;;;15.13;6.47;;;;;;;8.85;100.00;99663.63;5031688;28;20140;-74
2021/12/27 10:21:48;;;;;;;11.52;5.03;;;;;;;9.00;100.00;99668.56;5036882;28;20469;-75
2021/12/27 10:24:16;;;;;;;14.43;5.97;;;;;;;9.24;100.00;99664.72;5040931;28;20059;-76
2021/12/27 10:26:45;;;;;;;11.90;5.20;;;;;;;9.36;100.00;99663.41;5038001;28;20132;-76
2021/12/27 10:29:20;;;;;;;14.68;5.70;;;;;;;9.40;100.00;99659.41;5042455;28;20598;-75
2021/12/27 10:31:51;;;;;;;14.27;5.05;;;;;;;9.42;100.00;99668.03;5036837;28;20099;-75
2021/12/27 10:34:18;;;;;;;13.25;5.97;;;;;;;9.49;100.00;99656.13;5034826;28;20064;-76
2021/12/27 10:37:19;;;;;;;10.40;4.10;;;;;;;9.50;100.00;99655.72;5039749;28;20136;-76
2021/12/27 10:39:56;;;;;;;11.55;4.60;;;;;;;9.76;100.00;99645.88;5041731;28;20049;-76
2021/12/27 10:42:50;;;;;;;12.68;5.07;;;;;;;9.93;100.00;99631.03;5033613;28;20815;-76
2021/12/27 10:45:22;;;;;;;13.20;5.93;;;;;;;10.08;100.00;99640.66;5040402;28;20068;-76
2021/12/27 10:47:52;;;;;;;13.45;4.72;;;;;;;10.16;100.00;99639.38;5038431;28;20052;-76
2021/12/27 10:50:31;;;;;;;11.27;4.97;;;;;;;10.17;100.00;99644.44;5036746;28;20075;-75
2021/12/27 10:52:57;;;;;;;11.10;4.55;;;;;;;10.15;100.00;99637.78;5034606;28;20053;-75
2021/12/27 10:55:32;;;;;;;11.73;4.82;;;;;;;10.05;100.00;99633.97;5041341;28;20049;-75
2021/12/27 10:58:14;;;;;;;16.63;5.90;;;;;;;9.93;100.00;99631.03;5044291;28;20160;-75
2021/12/27 11:00:43;;;;;;;11.73;5.20;;;;;;;9.89;100.00;99631.06;5036083;28;20053;-74
2021/12/27 11:03:31;;;;;;;11.10;5.50;;;;;;;9.78;100.00;99627.69;5041861;28;20049;-75
2021/12/27 11:05:59;;;;;;;10.10;4.90;;;;;;;9.71;100.00;99621.47;5038365;28;20516;-75
2021/12/27 11:08:30;;;;;;;17.08;6.22;;;;;;;9.67;100.00;99621.53;5042709;28;20493;-76
2021/12/27 11:10:56;;;;;;;12.68;5.90;;;;;;;9.58;100.00;99623.25;5049527;28;20059;-73
2021/12/27 11:13:24;;;;;;;14.07;5.38;;;;;;;9.56;100.00;99618.16;5048463;28;20141;-75
2021/12/27 11:15:51;;;;;;;13.50;5.07;;;;;;;9.47;100.00;99617.09;5045489;28;20107;-75
2021/12/27 11:18:18;;;;;;;13.27;4.88;;;;;;;9.45;100.00;99611.22;5037316;28;20140;-75
2021/12/27 11:20:50;;;;;;;11.65;4.40;;;;;;;9.45;100.00;99611.22;5049127;28;20073;-76
2021/12/27 11:23:20;;;;;;;9.43;3.90;;;;;;;9.42;100.00;99607.28;5036916;28;20112;-75
2021/12/27 11:25:47;;;;;;;13.00;4.30;;;;;;;9.45;100.00;99612.00;5046465;28;20524;-75
2021/12/27 11:28:31;;;;;;;12.45;5.35;;;;;;;9.47;100.00;99606.06;5032660;28;20587;-74
2021/12/27 11:31:12;;;;;;;11.60;5.50;;;;;;;9.50;100.00;99585.91;5043760;28;20071;-75